Time;durP1;ratioP1;P1;durP2;ratioP2;P2;SDS_P1;SDS_P2;PMS_P1;PMS_P2;Temp;Humidity;BMP_temperature;BMP_pressure;BME280_temperature;BME280_humidity;BME280_pressure;Samples;Min_cycle;Max_cycle;Signal;HPM_P1;HPM_P2
2023/02/13 00:02:05;;;;;;;2.88;1.90;;;21.20;50.60;;;;;;5022158;28;20050;-67
2023/02/13 00:04:31;;;;;;;2.78;1.83;;;21.20;50.50;;;;;;5022416;28;20030;-67
2023/02/13 00:06:56;;;;;;;2.65;1.70;;;21.20;50.80;;;;;;5021143;28;20021;-68
2023/02/13 00:09:22;;;;;;;2.80;1.88;;;21.20;50.50;;;;;;5022232;28;20021;-67
2023/02/13 00:11:48;;;;;;;2.97;1.92;;;21.10;50.40;;;;;;5021771;28;20393;-67
2023/02/13 00:14:13;;;;;;;2.97;1.90;;;21.10;50.40;;;;;;5021335;28;20106;-67
2023/02/13 00:16:39;;;;;;;2.38;1.83;;;21.10;50.40;;;;;;5021022;28;20069;-67
2023/02/13 00:19:04;;;;;;;3.17;1.88;;;21.10;50.40;;;;;;5018226;28;20026;-67
2023/02/13 00:21:30;;;;;;;2.90;1.80;;;21.10;50.40;;;;;;5021682;28;20029;-68
2023/02/13 00:23:56;;;;;;;2.50;1.70;;;21.10;50.40;;;;;;5021703;28;20029;-68
2023/02/13 00:26:21;;;;;;;2.50;1.67;;;21.10;50.40;;;;;;5019692;28;20109;-68
2023/02/13 00:28:47;;;;;;;2.10;1.58;;;21.00;50.40;;;;;;5021565;28;20469;-68
2023/02/13 00:31:15;;;;;;;2.80;2.03;;;21.00;50.40;;;;;;5019599;28;20061;-67
2023/02/13 00:33:41;;;;;;;2.58;1.75;;;21.00;50.40;;;;;;5019883;28;20061;-66
2023/02/13 00:36:08;;;;;;;2.72;1.95;;;21.00;50.50;;;;;;5025532;28;20032;-67
2023/02/13 00:38:35;;;;;;;2.50;1.88;;;21.00;50.40;;;;;;5023002;28;20030;-66
2023/02/13 00:41:01;;;;;;;2.30;1.65;;;21.00;50.50;;;;;;5016006;28;20025;-66
2023/02/13 00:43:27;;;;;;;2.63;1.70;;;21.00;51.00;;;;;;5020824;28;20034;-67
2023/02/13 00:45:52;;;;;;;2.53;1.85;;;21.00;50.50;;;;;;5022047;28;20341;-66
2023/02/13 00:48:18;;;;;;;3.00;1.70;;;20.90;50.60;;;;;;5019431;28;20034;-67
2023/02/13 00:50:45;;;;;;;3.13;1.98;;;21.00;50.50;;;;;;5021717;28;20070;-67
2023/02/13 00:53:11;;;;;;;3.03;2.00;;;20.90;50.90;;;;;;5022975;28;20045;-67
2023/02/13 00:55:36;;;;;;;3.25;1.75;;;20.90;50.40;;;;;;5021154;28;20508;-67
2023/02/13 00:58:02;;;;;;;2.35;1.63;;;20.90;50.40;;;;;;5020224;28;20122;-67
2023/02/13 01:00:27;;;;;;;1.90;1.30;;;20.90;50.50;;;;;;5018614;28;20548;-67
2023/02/13 01:02:53;;;;;;;2.92;1.70;;;20.90;50.50;;;;;;5020547;28;20051;-67
2023/02/13 01:05:19;;;;;;;2.72;1.90;;;20.90;50.50;;;;;;5022115;28;20474;-67
2023/02/13 01:07:44;;;;;;;3.00;1.50;;;20.90;50.50;;;;;;5017468;28;20076;-67
2023/02/13 01:10:10;;;;;;;2.10;1.58;;;20.80;50.40;;;;;;5034468;28;20045;-67
2023/02/13 01:12:36;;;;;;;2.05;1.55;;;20.80;50.50;;;;;;5022264;28;20030;-67
2023/02/13 01:15:02;;;;;;;2.35;1.60;;;20.80;50.50;;;;;;5019091;28;20037;-67
2023/02/13 01:17:28;;;;;;;2.58;1.73;;;20.80;50.50;;;;;;5020294;28;20026;-67
2023/02/13 01:19:54;;;;;;;2.35;1.60;;;20.80;50.50;;;;;;5022290;28;20036;-67
2023/02/13 01:22:19;;;;;;;2.67;1.50;;;20.80;50.50;;;;;;5020581;28;20052;-66
2023/02/13 01:24:45;;;;;;;2.30;1.50;;;20.80;50.50;;;;;;5017908;28;20349;-67
2023/02/13 01:27:10;;;;;;;2.30;1.50;;;20.80;50.50;;;;;;5023157;28;20029;-67
2023/02/13 01:29:36;;;;;;;2.33;1.60;;;20.70;50.50;;;;;;5036466;28;20496;-66
2023/02/13 01:32:03;;;;;;;2.22;1.40;;;20.70;50.50;;;;;;5019204;28;20030;-66
2023/02/13 01:34:30;;;;;;;2.20;1.50;;;20.70;50.50;;;;;;5017385;28;20083;-67
2023/02/13 01:36:56;;;;;;;2.35;1.65;;;20.70;50.50;;;;;;5018388;28;20042;-66
2023/02/13 01:39:22;;;;;;;3.00;1.80;;;20.70;50.50;;;;;;5021182;28;20497;-66
2023/02/13 01:41:47;;;;;;;2.17;1.60;;;20.70;50.50;;;;;;5019751;28;20026;-66
2023/02/13 01:44:48;;;;;;;2.40;1.58;;;20.70;50.50;;;;;;5022684;28;20018;-67
2023/02/13 01:47:21;;;;;;;2.20;1.50;;;20.70;50.50;;;;;;5020365;28;20047;-67
2023/02/13 01:49:48;;;;;;;2.47;1.50;;;20.60;50.50;;;;;;5020567;28;20083;-67
2023/02/13 01:52:15;;;;;;;2.13;1.63;;;20.60;50.50;;;;;;5020192;28;20065;-67
2023/02/13 01:54:40;;;;;;;1.70;1.30;;;20.60;50.50;;;;;;5022165;28;20033;-68
2023/02/13 01:57:13;;;;;;;2.25;1.50;;;20.60;50.50;;;;;;5020875;28;20088;-67
2023/02/13 01:59:50;;;;;;;2.30;1.50;;;20.60;50.50;;;;;;5021200;28;20065;-67
2023/02/13 02:02:17;;;;;;;2.17;1.58;;;20.60;50.50;;;;;;5019521;28;20512;-67
2023/02/13 02:04:44;;;;;;;2.30;1.50;;;20.60;50.50;;;;;;5019728;28;20058;-67
2023/02/13 02:07:20;;;;;;;2.10;1.50;;;20.60;50.50;;;;;;5017885;28;20468;-67
2023/02/13 02:09:46;;;;;;;2.15;1.50;;;20.60;50.60;;;;;;5020671;28;20125;-67
2023/02/13 02:12:34;;;;;;;1.95;1.38;;;20.50;50.50;;;;;;5020209;28;20033;-67
2023/02/13 02:15:03;;;;;;;2.33;1.50;;;20.50;50.50;;;;;;5016112;28;20385;-68
2023/02/13 02:17:29;;;;;;;1.80;1.40;;;20.50;50.50;;;;;;5018614;28;20088;-67
2023/02/13 02:19:55;;;;;;;2.53;1.40;;;20.50;50.60;;;;;;5020595;28;20560;-67
2023/02/13 02:22:41;;;;;;;1.70;1.30;;;20.50;50.60;;;;;;5020618;28;20076;-67
2023/02/13 02:25:42;;;;;;;2.05;1.40;;;20.50;50.50;;;;;;5019867;28;20025;-67
2023/02/13 02:28:38;;;;;;;2.40;1.40;;;20.50;50.50;;;;;;5020838;28;20458;-67
2023/02/13 02:31:41;;;;;;;2.13;1.42;;;20.50;50.60;;;;;;5018297;28;20064;-67
2023/02/13 02:34:44;;;;;;;1.70;1.30;;;20.50;50.60;;;;;;5019698;28;20480;-67
2023/02/13 02:37:40;;;;;;;1.75;1.30;;;20.40;50.50;;;;;;5018616;28;20106;-67
2023/02/13 02:40:21;;;;;;;2.00;1.50;;;20.50;50.60;;;;;;5015656;28;20121;-67
2023/02/13 02:43:17;;;;;;;2.00;1.50;;;20.40;50.50;;;;;;5018718;28;20025;-67
2023/02/13 02:46:00;;;;;;;1.73;1.33;;;20.40;50.50;;;;;;5020572;28;20100;-68
2023/02/13 02:51:40;;;;;;;1.95;1.35;;;20.40;50.50;;;;;;5019649;28;20461;-67
2023/02/13 02:57:23;;;;;;;2.03;1.30;;;20.40;50.50;;;;;;5020868;28;20052;-67
2023/02/13 03:14:26;;;;;;;1.83;1.20;;;20.30;50.50;;;;;;5021708;28;20072;-67
2023/02/13 03:22:45;;;;;;;2.03;1.30;;;20.30;50.50;;;;;;5015738;28;20045;-68
2023/02/13 03:25:29;;;;;;;1.73;1.20;;;20.30;50.50;;;;;;5021324;28;20025;-67
2023/02/13 03:30:51;;;;;;;1.73;1.30;;;20.30;50.50;;;;;;5018512;28;20045;-67
2023/02/13 03:33:54;;;;;;;1.48;1.10;;;20.30;50.50;;;;;;5018449;28;20416;-67
2023/02/13 03:39:44;;;;;;;1.80;1.27;;;20.30;50.50;;;;;;5022311;28;20045;-67
2023/02/13 03:42:34;;;;;;;1.50;1.20;;;20.30;50.50;;;;;;5020575;28;20022;-67
2023/02/13 03:47:54;;;;;;;1.55;1.13;;;20.30;50.50;;;;;;5022627;28;20099;-67
2023/02/13 03:50:21;;;;;;;1.70;1.30;;;20.20;50.50;;;;;;5023324;28;20030;-67
2023/02/13 03:53:02;;;;;;;1.80;1.20;;;20.20;50.50;;;;;;5020059;28;20029;-67
2023/02/13 04:01:17;;;;;;;1.65;1.10;;;20.20;50.50;;;;;;5022895;28;20064;-67
2023/02/13 04:03:58;;;;;;;1.80;1.20;;;20.20;50.50;;;;;;5023419;28;20102;-67
2023/02/13 04:06:36;;;;;;;2.08;1.50;;;20.20;50.50;;;;;;5024092;28;20026;-66
2023/02/13 04:09:02;;;;;;;1.70;1.25;;;20.20;50.50;;;;;;5020757;28;20061;-67
2023/02/13 04:11:32;;;;;;;1.60;1.15;;;20.20;50.50;;;;;;5021965;28;20029;-67
2023/02/13 04:14:01;;;;;;;1.48;1.20;;;20.20;50.60;;;;;;5021742;28;20030;-66
2023/02/13 04:16:39;;;;;;;1.58;1.20;;;20.20;50.50;;;;;;5013338;28;20064;-66
2023/02/13 04:19:06;;;;;;;1.60;1.20;;;20.20;50.50;;;;;;5021556;28;20106;-68
2023/02/13 04:21:37;;;;;;;1.10;0.90;;;20.20;50.60;;;;;;5021830;28;20034;-67
2023/02/13 04:24:03;;;;;;;1.38;1.00;;;20.10;50.50;;;;;;5019887;28;20444;-67
2023/02/13 04:26:38;;;;;;;1.58;1.13;;;20.10;50.50;;;;;;5017204;28;20565;-67
2023/02/13 04:29:04;;;;;;;1.52;1.20;;;20.10;50.50;;;;;;5016830;28;20496;-67
2023/02/13 04:31:30;;;;;;;1.40;1.15;;;20.20;50.60;;;;;;5024943;28;20477;-67
2023/02/13 04:33:56;;;;;;;1.48;1.10;;;20.10;50.60;;;;;;5021621;28;20037;-67
2023/02/13 04:36:21;;;;;;;1.70;1.30;;;20.10;50.60;;;;;;5019075;28;20468;-67
2023/02/13 04:38:47;;;;;;;1.90;1.30;;;20.10;50.60;;;;;;5021287;28;20533;-67
2023/02/13 04:41:13;;;;;;;1.70;1.30;;;20.10;50.60;;;;;;5021910;28;20036;-67
2023/02/13 04:43:38;;;;;;;1.92;1.20;;;20.10;50.60;;;;;;5020259;28;20026;-67
2023/02/13 04:46:04;;;;;;;2.00;1.30;;;20.10;50.60;;;;;;5019635;28;20057;-67
2023/02/13 04:48:30;;;;;;;1.63;1.30;;;20.10;50.70;;;;;;5022226;28;20481;-67
2023/02/13 04:50:55;;;;;;;1.50;1.25;;;20.10;50.70;;;;;;5021107;28;20043;-67
2023/02/13 04:53:21;;;;;;;1.50;1.20;;;20.10;50.70;;;;;;5022145;28;20037;-67
2023/02/13 04:55:47;;;;;;;1.77;1.27;;;20.10;50.70;;;;;;5019556;28;20030;-68
2023/02/13 04:58:12;;;;;;;1.20;1.10;;;20.10;50.70;;;;;;5019373;28;20053;-67
2023/02/13 05:00:38;;;;;;;1.50;1.20;;;20.10;50.70;;;;;;5021420;28;20021;-68
2023/02/13 05:03:09;;;;;;;2.00;1.33;;;20.10;50.70;;;;;;5021749;28;20050;-68
2023/02/13 05:05:35;;;;;;;1.52;1.20;;;20.10;50.70;;;;;;5020519;28;20046;-67
2023/02/13 05:08:01;;;;;;;1.60;1.25;;;20.10;50.70;;;;;;5021381;28;20057;-67
2023/02/13 05:10:27;;;;;;;1.90;1.25;;;20.10;50.70;;;;;;5016573;28;20030;-67
2023/02/13 05:12:53;;;;;;;1.65;1.25;;;20.10;50.80;;;;;;5020650;28;20311;-67
2023/02/13 05:15:19;;;;;;;1.67;1.15;;;20.00;50.70;;;;;;5021143;28;20076;-67
2023/02/13 05:17:45;;;;;;;1.63;1.20;;;20.10;50.80;;;;;;5020245;28;20029;-67
2023/02/13 05:20:13;;;;;;;1.52;1.40;;;20.00;50.80;;;;;;5020582;28;20033;-67
2023/02/13 05:25:36;;;;;;;1.70;1.13;;;20.00;50.80;;;;;;5021778;28;20041;-67
2023/02/13 05:28:03;;;;;;;1.73;1.17;;;20.00;50.80;;;;;;5021979;28;20469;-68
2023/02/13 05:30:29;;;;;;;1.70;1.20;;;20.00;50.80;;;;;;5019058;28;20041;-67
2023/02/13 05:32:54;;;;;;;1.67;1.30;;;20.00;50.90;;;;;;5022121;28;20030;-67
2023/02/13 05:35:24;;;;;;;1.55;1.30;;;20.00;50.90;;;;;;5019604;28;20514;-67
2023/02/13 05:37:49;;;;;;;;;;;20.00;50.90;;;;;;5021229;28;20052;-68
2023/02/13 05:40:15;;;;;;;1.33;1.10;;;20.00;50.90;;;;;;5019420;28;20004;-68
2023/02/13 05:42:42;;;;;;;1.70;1.27;;;20.00;51.00;;;;;;5021442;28;20030;-68
2023/02/13 05:45:09;;;;;;;1.80;1.40;;;20.00;51.10;;;;;;5017900;28;20025;-68
2023/02/13 05:47:35;;;;;;;1.60;1.20;;;20.00;51.20;;;;;;5019134;28;20040;-68
2023/02/13 05:50:00;;;;;;;1.70;1.15;;;20.00;51.30;;;;;;5019023;28;20036;-68
2023/02/13 05:52:26;;;;;;;2.00;1.13;;;20.00;51.50;;;;;;5017443;28;20025;-68
2023/02/13 05:54:52;;;;;;;2.58;1.20;;;20.00;51.50;;;;;;5021893;28;20079;-67
2023/02/13 05:57:17;;;;;;;1.60;1.10;;;20.00;51.60;;;;;;5016683;28;20026;-67
2023/02/13 05:59:43;;;;;;;2.65;1.10;;;20.00;51.70;;;;;;5020636;28;20171;-68
2023/02/13 06:02:09;;;;;;;1.55;1.05;;;20.00;51.70;;;;;;5016719;28;20496;-67
2023/02/13 06:04:34;;;;;;;2.72;1.10;;;20.00;51.70;;;;;;5017976;28;20022;-68
2023/02/13 06:07:01;;;;;;;1.50;1.10;;;19.90;51.70;;;;;;5018218;28;20761;-67
2023/02/13 06:09:26;;;;;;;1.80;1.08;;;20.00;51.80;;;;;;5019347;28;20182;-68
2023/02/13 06:11:52;;;;;;;2.00;1.30;;;20.00;51.80;;;;;;5020030;28;20379;-68
2023/02/13 06:14:18;;;;;;;1.70;1.20;;;20.00;51.70;;;;;;5017783;28;20033;-67
2023/02/13 06:16:43;;;;;;;1.77;1.10;;;20.00;51.70;;;;;;5021048;28;20479;-68
2023/02/13 06:19:09;;;;;;;1.85;1.20;;;20.00;51.60;;;;;;5021497;28;20028;-68
2023/02/13 06:21:36;;;;;;;2.22;1.40;;;20.00;51.60;;;;;;5019768;28;20091;-67
2023/02/13 06:24:06;;;;;;;2.30;1.30;;;20.00;51.50;;;;;;5020052;28;20028;-67
2023/02/13 06:26:33;;;;;;;1.98;1.30;;;20.00;51.60;;;;;;5022994;28;20032;-68
2023/02/13 06:28:58;;;;;;;1.83;1.10;;;19.90;51.50;;;;;;5019882;28;20029;-68
2023/02/13 06:31:24;;;;;;;1.65;1.17;;;20.00;51.50;;;;;;5019718;28;20037;-67
2023/02/13 06:33:49;;;;;;;1.73;1.13;;;19.90;51.40;;;;;;5020914;28;20408;-68
2023/02/13 06:36:15;;;;;;;1.70;1.20;;;20.00;51.50;;;;;;5023010;28;20100;-68
2023/02/13 06:38:41;;;;;;;1.45;1.10;;;19.90;51.40;;;;;;5021160;28;20424;-68
2023/02/13 06:41:07;;;;;;;1.92;1.30;;;19.90;51.40;;;;;;5020122;28;20491;-69
2023/02/13 06:43:33;;;;;;;1.85;1.20;;;19.90;51.60;;;;;;5019552;28;20049;-69
2023/02/13 06:45:58;;;;;;;2.28;1.10;;;19.90;51.40;;;;;;5020892;28;20025;-69
2023/02/13 06:48:24;;;;;;;2.20;1.20;;;20.00;51.50;;;;;;5033853;28;20512;-69
2023/02/13 06:50:53;;;;;;;1.63;1.10;;;19.90;51.50;;;;;;5020007;28;20100;-68
2023/02/13 06:53:23;;;;;;;1.88;1.23;;;19.90;51.50;;;;;;5020186;28;20018;-68
2023/02/13 06:55:50;;;;;;;2.28;1.40;;;19.90;51.40;;;;;;5018928;28;20038;-69
2023/02/13 06:58:16;;;;;;;1.67;1.20;;;19.90;51.50;;;;;;5034300;28;20030;-69
2023/02/13 07:00:42;;;;;;;3.15;1.75;;;19.90;51.40;;;;;;5017480;28;20044;-68
2023/02/13 07:03:09;;;;;;;2.47;1.30;;;19.90;51.40;;;;;;5019386;28;20105;-68
2023/02/13 07:05:37;;;;;;;1.80;1.10;;;19.90;51.40;;;;;;5018428;28;20722;-69
2023/02/13 07:08:03;;;;;;;1.67;1.13;;;19.90;51.40;;;;;;5016075;28;20065;-69
2023/02/13 07:10:29;;;;;;;2.00;1.20;;;19.90;51.40;;;;;;5018570;28;20057;-68
2023/02/13 07:12:54;;;;;;;1.98;1.27;;;19.90;51.40;;;;;;5034225;28;20560;-69
2023/02/13 07:15:20;;;;;;;2.10;1.25;;;19.90;51.40;;;;;;5019231;28;20034;-68
2023/02/13 07:17:46;;;;;;;2.70;1.27;;;19.90;51.40;;;;;;5017617;28;20038;-68
2023/02/13 07:20:12;;;;;;;1.75;1.20;;;19.90;51.40;;;;;;5016040;28;20052;-68
2023/02/13 07:22:37;;;;;;;2.10;1.20;;;19.90;51.40;;;;;;5015522;28;20021;-68
2023/02/13 07:25:03;;;;;;;1.75;1.00;;;19.90;51.40;;;;;;5018249;28;20538;-69
2023/02/13 07:27:29;;;;;;;2.03;1.17;;;19.90;51.30;;;;;;5018687;28;20032;-68
2023/02/13 07:29:56;;;;;;;1.48;1.00;;;19.90;51.30;;;;;;5019152;28;20068;-69
2023/02/13 07:32:22;;;;;;;3.20;1.30;;;19.90;51.40;;;;;;5016902;28;20447;-69
2023/02/13 07:34:48;;;;;;;2.00;1.30;;;19.90;51.30;;;;;;5035752;28;20056;-68
2023/02/13 07:37:14;;;;;;;2.55;1.27;;;19.90;51.30;;;;;;5018174;28;20060;-69
2023/02/13 07:39:40;;;;;;;1.58;1.10;;;19.90;51.30;;;;;;5017613;28;20129;-69
2023/02/13 07:42:06;;;;;;;1.60;1.13;;;19.90;51.30;;;;;;5017008;28;20029;-69
2023/02/13 07:44:31;;;;;;;1.92;1.10;;;19.90;51.30;;;;;;5018314;28;20066;-69
2023/02/13 07:46:57;;;;;;;1.83;1.17;;;19.90;51.30;;;;;;5018672;28;20029;-69
2023/02/13 07:49:23;;;;;;;3.03;1.25;;;19.90;51.30;;;;;;5018688;28;20104;-68
2023/02/13 07:51:48;;;;;;;1.75;1.10;;;19.90;51.30;;;;;;5017531;28;20037;-68
2023/02/13 07:54:14;;;;;;;2.08;1.20;;;19.90;51.30;;;;;;5016836;28;20051;-68
2023/02/13 07:56:40;;;;;;;2.10;1.15;;;19.90;51.30;;;;;;5020437;28;20030;-68
2023/02/13 07:59:05;;;;;;;2.40;1.40;;;19.90;51.30;;;;;;5017574;28;20483;-68
2023/02/13 08:01:31;;;;;;;1.92;1.20;;;19.90;51.30;;;;;;5018043;28;20037;-69
2023/02/13 08:03:56;;;;;;;1.90;1.08;;;19.90;51.30;;;;;;5017658;28;20058;-68
2023/02/13 08:06:22;;;;;;;2.38;1.10;;;19.90;51.30;;;;;;5020400;28;20025;-69
2023/02/13 08:11:52;;;;;;;2.50;1.27;;;19.90;51.30;;;;;;5018756;28;20022;-69
2023/02/13 08:14:19;;;;;;;1.83;1.15;;;19.90;51.20;;;;;;5014651;28;20144;-69
2023/02/13 08:16:44;;;;;;;2.10;1.20;;;19.80;51.20;;;;;;5019407;28;20025;-69
2023/02/13 08:19:10;;;;;;;1.45;1.15;;;19.90;51.20;;;;;;5020562;28;20022;-69
2023/02/13 08:21:37;;;;;;;1.30;0.95;;;19.80;51.20;;;;;;5021012;28;20022;-68
2023/02/13 08:24:03;;;;;;;1.88;1.20;;;19.80;51.10;;;;;;5019385;28;20099;-69
2023/02/13 08:26:31;;;;;;;1.40;1.00;;;19.80;51.20;;;;;;5019067;28;20485;-68
2023/02/13 08:28:56;;;;;;;1.70;1.20;;;19.80;51.20;;;;;;5021213;28;20445;-68
2023/02/13 08:31:22;;;;;;;2.10;1.23;;;19.80;51.20;;;;;;5020309;28;20030;-69
2023/02/13 08:33:47;;;;;;;2.00;1.20;;;19.80;51.20;;;;;;5021669;28;20064;-68
2023/02/13 08:36:13;;;;;;;2.08;1.05;;;19.80;51.20;;;;;;5019332;28;20096;-69
2023/02/13 08:38:38;;;;;;;2.30;1.20;;;19.80;51.10;;;;;;5019975;28;20605;-68
2023/02/13 08:41:04;;;;;;;1.63;1.10;;;19.80;51.10;;;;;;5036941;28;20032;-69
2023/02/13 08:43:30;;;;;;;2.65;1.67;;;19.90;51.20;;;;;;5021889;28;20084;-68
2023/02/13 08:45:59;;;;;;;2.22;1.10;;;19.80;51.10;;;;;;5018213;28;20125;-68
2023/02/13 08:48:26;;;;;;;1.70;1.10;;;19.80;51.10;;;;;;5020500;28;20405;-68
2023/02/13 08:50:51;;;;;;;1.90;1.20;;;19.80;51.20;;;;;;5021457;28;20524;-69
2023/02/13 08:53:17;;;;;;;1.90;1.20;;;19.80;51.70;;;;;;5022252;28;20053;-68
2023/02/13 08:55:50;;;;;;;1.88;1.08;;;19.80;51.10;;;;;;5019492;28;20020;-69
2023/02/13 08:58:15;;;;;;;2.10;1.20;;;19.90;51.20;;;;;;5020027;28;20137;-69
2023/02/13 09:00:41;;;;;;;1.55;1.20;;;19.80;51.20;;;;;;5018905;28;20477;-69
2023/02/13 09:03:06;;;;;;;1.90;1.40;;;19.80;51.10;;;;;;5022011;28;20053;-68
2023/02/13 09:05:32;;;;;;;2.00;1.23;;;19.80;51.10;;;;;;5017220;28;20029;-69
2023/02/13 09:08:02;;;;;;;1.50;1.00;;;19.80;51.10;;;;;;5023016;28;20021;-68
2023/02/13 09:10:29;;;;;;;1.70;1.30;;;19.80;51.10;;;;;;5022286;28;20100;-69
2023/02/13 09:12:55;;;;;;;1.92;1.20;;;19.80;51.10;;;;;;5019405;28;20026;-68
2023/02/13 09:15:20;;;;;;;1.30;0.93;;;19.80;51.10;;;;;;5022026;28;20037;-69
2023/02/13 09:17:46;;;;;;;1.92;1.20;;;19.80;51.10;;;;;;5019849;28;20026;-69
2023/02/13 09:20:12;;;;;;;1.52;1.08;;;19.80;51.10;;;;;;5019963;28;20034;-69
2023/02/13 09:22:39;;;;;;;1.80;1.10;;;19.80;51.10;;;;;;5021622;28;20018;-68
2023/02/13 09:25:05;;;;;;;1.50;0.95;;;19.80;51.10;;;;;;5021092;28;20033;-69
2023/02/13 09:27:32;;;;;;;1.30;1.00;;;19.80;51.10;;;;;;5019655;28;20026;-68
2023/02/13 09:29:58;;;;;;;1.80;1.10;;;19.80;51.10;;;;;;5019299;28;20021;-69
2023/02/13 09:32:25;;;;;;;1.25;1.00;;;19.80;51.10;;;;;;5019083;28;20037;-69
2023/02/13 09:34:50;;;;;;;1.48;1.00;;;19.80;51.10;;;;;;5021059;28;20123;-69
2023/02/13 09:37:16;;;;;;;1.80;1.10;;;19.80;51.00;;;;;;5019736;28;20030;-69
2023/02/13 09:39:41;;;;;;;1.48;1.08;;;19.80;51.00;;;;;;5018798;28;20044;-69
2023/02/13 09:42:23;;;;;;;2.22;1.17;;;19.80;51.00;;;;;;5018821;28;20021;-68
2023/02/13 09:45:00;;;;;;;1.25;1.00;;;19.80;51.00;;;;;;5019683;28;20104;-68
2023/02/13 09:47:34;;;;;;;2.00;1.20;;;19.80;51.00;;;;;;5021395;28;20039;-69
2023/02/13 09:50:10;;;;;;;1.90;1.20;;;19.80;51.00;;;;;;5015750;28;20033;-69
2023/02/13 09:52:37;;;;;;;2.03;1.25;;;19.70;51.00;;;;;;5023722;28;20026;-69
2023/02/13 09:55:28;;;;;;;1.25;1.00;;;19.70;50.90;;;;;;5022471;28;20033;-69
2023/02/13 09:57:54;;;;;;;1.77;1.15;;;19.80;51.00;;;;;;5022127;28;20132;-69
2023/02/13 10:00:40;;;;;;;1.42;1.00;;;19.80;51.00;;;;;;5019262;28;20044;-69
2023/02/13 10:03:18;;;;;;;1.83;1.30;;;19.70;50.90;;;;;;5021567;28;20021;-69
2023/02/13 10:05:47;;;;;;;1.35;1.00;;;19.70;51.00;;;;;;5016826;28;20022;-69
2023/02/13 10:08:41;;;;;;;1.55;1.10;;;19.70;50.90;;;;;;5020967;28;20045;-69
2023/02/13 10:11:21;;;;;;;1.70;1.20;;;19.70;50.90;;;;;;5022149;28;20037;-69
2023/02/13 10:13:58;;;;;;;1.58;1.00;;;19.70;50.90;;;;;;5019192;28;20025;-69
2023/02/13 10:16:34;;;;;;;1.70;1.20;;;19.70;50.90;;;;;;5016487;28;20033;-69
2023/02/13 10:19:02;;;;;;;1.90;1.10;;;19.70;50.90;;;;;;5018956;28;20079;-69
2023/02/13 10:21:34;;;;;;;1.77;1.10;;;19.70;50.90;;;;;;5019072;28;20026;-69
2023/02/13 10:24:36;;;;;;;1.92;1.20;;;19.70;50.90;;;;;;5016286;28;20501;-69
2023/02/13 10:27:17;;;;;;;2.30;1.20;;;19.70;50.90;;;;;;5015368;28;20045;-69
2023/02/13 10:30:04;;;;;;;1.63;1.10;;;19.70;51.00;;;;;;5020551;28;20037;-69
2023/02/13 10:33:19;;;;;;;1.83;1.02;;;19.70;50.90;;;;;;5019535;28;20025;-69
2023/02/13 10:35:51;;;;;;;2.00;1.30;;;19.70;50.90;;;;;;5019106;28;20026;-69
2023/02/13 10:38:19;;;;;;;1.50;1.20;;;19.70;50.90;;;;;;5021709;28;20048;-69
2023/02/13 10:41:21;;;;;;;1.50;1.20;;;19.70;50.90;;;;;;5019927;28;20451;-69
2023/02/13 10:44:06;;;;;;;1.45;1.08;;;19.70;50.90;;;;;;5019244;28;20093;-69
2023/02/13 10:47:02;;;;;;;1.42;1.00;;;19.70;50.90;;;;;;5018667;28;20029;-69
2023/02/13 10:49:49;;;;;;;1.55;1.13;;;19.70;50.90;;;;;;5010597;28;20124;-69
2023/02/13 10:52:22;;;;;;;1.65;1.15;;;19.70;51.40;;;;;;5019741;28;20034;-69
2023/02/13 10:55:24;;;;;;;2.50;1.38;;;19.70;50.90;;;;;;5019093;28;20812;-69
2023/02/13 10:58:21;;;;;;;1.73;1.20;;;19.70;50.80;;;;;;5018250;28;20464;-69
2023/02/13 11:00:55;;;;;;;1.75;1.10;;;19.70;50.90;;;;;;5016630;28;20049;-69
2023/02/13 11:03:28;;;;;;;1.98;1.30;;;19.60;50.80;;;;;;5018987;28;20092;-69
2023/02/13 11:05:56;;;;;;;1.92;1.20;;;19.60;50.80;;;;;;5015933;28;20057;-69
2023/02/13 11:08:27;;;;;;;1.67;1.17;;;19.70;50.90;;;;;;5017139;28;20040;-69
2023/02/13 11:10:53;;;;;;;1.52;1.17;;;19.60;50.80;;;;;;5016057;28;20022;-69
2023/02/13 11:13:27;;;;;;;1.58;1.10;;;19.60;50.80;;;;;;5018043;28;20064;-69
2023/02/13 11:16:04;;;;;;;1.77;1.20;;;19.60;50.80;;;;;;5020818;28;20388;-69
2023/02/13 11:18:33;;;;;;;1.83;1.27;;;19.70;50.80;;;;;;5019509;28;20412;-69
2023/02/13 11:21:07;;;;;;;1.95;1.13;;;19.60;50.80;;;;;;5023302;28;20117;-68
2023/02/13 11:23:35;;;;;;;2.25;1.45;;;19.60;50.80;;;;;;5021682;28;20354;-68
2023/02/13 11:26:07;;;;;;;2.47;1.40;;;19.70;50.80;;;;;;5018711;28;20033;-68
2023/02/13 11:28:37;;;;;;;1.80;1.20;;;19.60;50.80;;;;;;5021350;28;20026;-69
2023/02/13 11:31:25;;;;;;;1.55;1.10;;;19.70;50.80;;;;;;5018625;28;20038;-69
2023/02/13 11:33:51;;;;;;;1.90;1.30;;;19.60;50.80;;;;;;5018747;28;20385;-69
2023/02/13 11:36:43;;;;;;;1.77;1.30;;;19.60;50.70;;;;;;5019114;28;20022;-69
2023/02/13 11:39:20;;;;;;;1.83;1.23;;;19.60;50.80;;;;;;5018913;28;20127;-69
2023/02/13 11:41:51;;;;;;;1.88;1.23;;;19.60;50.70;;;;;;5020495;28;20342;-69
2023/02/13 11:44:27;;;;;;;2.45;1.52;;;19.60;50.80;;;;;;5016772;28;20030;-69
2023/02/13 11:46:56;;;;;;;1.70;1.20;;;19.60;50.80;;;;;;5021381;28;20029;-69
2023/02/13 11:49:24;;;;;;;1.90;1.20;;;19.60;50.70;;;;;;5015659;28;20052;-69
2023/02/13 11:52:13;;;;;;;1.90;1.30;;;19.60;50.80;;;;;;5018507;28;20035;-69
2023/02/13 11:54:41;;;;;;;2.17;1.40;;;19.60;50.70;;;;;;5018616;28;20447;-68
2023/02/13 11:57:29;;;;;;;2.40;1.35;;;19.60;50.70;;;;;;5022913;28;20037;-69
2023/02/13 11:59:55;;;;;;;1.80;1.23;;;19.60;50.70;;;;;;5022337;28;20030;-69
2023/02/13 12:02:21;;;;;;;1.88;1.27;;;19.60;50.70;;;;;;5022630;28;20018;-69
2023/02/13 12:04:49;;;;;;;1.90;1.20;;;19.60;50.80;;;;;;5021571;28;20153;-69
2023/02/13 12:07:23;;;;;;;1.75;1.20;;;19.60;50.70;;;;;;5022059;28;20097;-69
2023/02/13 12:10:01;;;;;;;2.03;1.20;;;19.60;50.70;;;;;;5021348;28;20112;-69
2023/02/13 12:12:38;;;;;;;2.15;1.20;;;19.60;51.30;;;;;;5020385;28;20041;-69
2023/02/13 12:15:19;;;;;;;1.80;1.20;;;19.60;50.70;;;;;;5020075;28;20498;-68
2023/02/13 12:17:48;;;;;;;2.03;1.30;;;19.60;50.70;;;;;;5020505;28;20037;-68
2023/02/13 12:20:15;;;;;;;1.95;1.30;;;19.60;50.80;;;;;;5019013;28;20076;-68
2023/02/13 12:23:11;;;;;;;2.25;1.40;;;19.50;50.70;;;;;;5022609;28;20040;-69
2023/02/13 12:26:01;;;;;;;1.95;1.40;;;19.60;50.70;;;;;;5021042;28;20033;-69
2023/02/13 12:28:43;;;;;;;2.10;1.30;;;19.60;50.70;;;;;;5020960;28;20026;-68
2023/02/13 12:31:11;;;;;;;1.80;1.30;;;19.60;50.80;;;;;;5019293;28;20060;-68
2023/02/13 12:34:06;;;;;;;2.20;1.40;;;19.60;50.70;;;;;;5022363;28;20538;-68
2023/02/13 12:36:59;;;;;;;1.92;1.30;;;19.60;50.70;;;;;;5013311;28;20434;-69
2023/02/13 12:39:35;;;;;;;2.38;1.38;;;19.60;50.70;;;;;;5022061;28;20029;-68
2023/02/13 12:42:20;;;;;;;2.10;1.40;;;19.60;50.70;;;;;;5028757;28;20041;-68
2023/02/13 12:45:03;;;;;;;1.50;1.10;;;19.50;50.70;;;;;;5019096;28;20341;-69
2023/02/13 12:47:33;;;;;;;3.15;1.60;;;19.60;50.80;;;;;;5017364;28;20088;-69
2023/02/13 12:50:10;;;;;;;1.67;1.30;;;19.60;50.80;;;;;;5022453;28;20033;-68
2023/02/13 12:52:49;;;;;;;1.80;1.30;;;19.60;50.70;;;;;;5021365;28;20026;-68
2023/02/13 12:55:33;;;;;;;2.13;1.40;;;19.50;50.70;;;;;;5021505;28;20385;-69
2023/02/13 12:58:18;;;;;;;2.22;1.30;;;19.60;50.70;;;;;;5024554;28;20031;-68
2023/02/13 13:01:18;;;;;;;1.90;1.35;;;19.50;50.70;;;;;;5020108;28;20029;-68
2023/02/13 13:04:03;;;;;;;2.00;1.40;;;19.50;50.70;;;;;;5017215;28;20041;-68
2023/02/13 13:06:49;;;;;;;2.50;1.35;;;19.50;50.70;;;;;;5019765;28;20121;-69
2023/02/13 13:09:33;;;;;;;2.00;1.15;;;19.60;50.70;;;;;;5018034;28;20046;-68
2023/02/13 13:12:26;;;;;;;2.53;1.50;;;19.50;50.70;;;;;;5020098;28;20034;-68
2023/02/13 13:15:00;;;;;;;2.75;1.25;;;19.50;50.70;;;;;;5022883;28;20025;-69
2023/02/13 13:17:44;;;;;;;2.15;1.40;;;19.50;50.70;;;;;;5016166;28;20092;-68
2023/02/13 13:20:13;;;;;;;2.03;1.40;;;19.50;50.70;;;;;;5019565;28;20083;-69
2023/02/13 13:22:57;;;;;;;2.95;1.50;;;19.50;50.70;;;;;;5019080;28;20018;-69
2023/02/13 13:26:07;;;;;;;2.10;1.35;;;19.50;50.70;;;;;;5021949;28;20030;-68
2023/02/13 13:28:48;;;;;;;2.40;1.40;;;19.50;50.70;;;;;;4998950;28;20046;-68
2023/02/13 13:31:15;;;;;;;3.75;1.60;;;19.50;50.70;;;;;;5022661;28;20427;-68
2023/02/13 13:33:44;;;;;;;2.95;1.48;;;19.50;50.70;;;;;;5021285;28;20045;-68
2023/02/13 13:36:09;;;;;;;3.25;1.55;;;19.50;50.70;;;;;;5035752;28;20026;-68
2023/02/13 13:39:14;;;;;;;2.63;1.50;;;19.50;50.70;;;;;;5021303;28;20492;-68
2023/02/13 13:42:16;;;;;;;3.15;1.60;;;19.50;50.70;;;;;;5021055;28;20389;-68
2023/02/13 13:44:59;;;;;;;2.92;1.60;;;19.50;50.70;;;;;;5019921;28;20786;-69
2023/02/13 13:47:45;;;;;;;3.90;1.85;;;19.50;50.80;;;;;;5021557;28;20047;-68
2023/02/13 13:50:23;;;;;;;3.28;1.80;;;19.50;50.80;;;;;;5017183;28;20088;-69
2023/02/13 13:53:18;;;;;;;3.53;2.00;;;19.50;50.80;;;;;;5021189;28;20034;-69
2023/02/13 13:55:46;;;;;;;3.50;1.85;;;19.50;50.80;;;;;;5019516;28;20034;-69
2023/02/13 13:58:39;;;;;;;3.80;1.77;;;19.50;50.80;;;;;;5020342;28;20113;-68
2023/02/13 14:01:17;;;;;;;3.30;1.85;;;19.50;50.80;;;;;;5017494;28;20477;-69